createdAt,value
2022-12-25T00:02:24.644Z,19.88
2022-12-25T00:07:26.018Z,20.93
2022-12-25T00:12:27.284Z,18.58
2022-12-25T00:17:28.615Z,22.85
2022-12-25T00:22:29.959Z,26.00
2022-12-25T00:27:32.844Z,27.98
2022-12-25T00:32:37.490Z,29.17
2022-12-25T00:37:38.927Z,27.48
2022-12-25T00:42:40.243Z,26.35
2022-12-25T00:47:41.565Z,27.57
2022-12-25T00:52:42.840Z,25.20
2022-12-25T00:57:44.393Z,20.13
2022-12-25T01:02:45.872Z,19.52
2022-12-25T01:07:47.296Z,20.17
2022-12-25T01:12:49.105Z,18.53
2022-12-25T01:17:50.411Z,18.80
2022-12-25T01:22:51.716Z,16.70
2022-12-25T01:27:52.975Z,18.90
2022-12-25T01:32:54.278Z,16.30
2022-12-25T01:37:55.618Z,14.43
2022-12-25T01:42:56.976Z,17.17
2022-12-25T01:47:58.613Z,19.30
2022-12-25T01:53:00.114Z,21.48
2022-12-25T01:58:01.658Z,20.98
2022-12-25T02:03:03.679Z,20.00
2022-12-25T02:08:09.886Z,19.63
2022-12-25T02:13:12.393Z,23.90
2022-12-25T02:18:18.880Z,22.17
2022-12-25T02:23:20.107Z,30.98
2022-12-25T02:28:25.832Z,20.80
2022-12-25T02:34:01.510Z,22.70
2022-12-25T02:39:22.528Z,29.77
2022-12-25T02:44:43.419Z,35.40
2022-12-25T02:50:04.382Z,20.92
2022-12-25T02:55:28.766Z,20.90
2022-12-25T03:00:50.571Z,18.67
2022-12-25T03:06:11.463Z,17.07
2022-12-25T03:11:31.372Z,21.45
2022-12-25T03:16:51.018Z,21.35
2022-12-25T03:22:12.088Z,16.53
2022-12-25T03:27:13.376Z,16.73
2022-12-25T03:32:29.309Z,15.03
2022-12-25T03:37:47.637Z,13.52
2022-12-25T03:43:11.388Z,14.52
2022-12-25T03:48:13.068Z,17.10
2022-12-25T03:53:37.784Z,13.77
2022-12-25T03:59:08.220Z,16.77
2022-12-25T04:04:28.052Z,15.00
2022-12-25T04:09:48.448Z,18.90
2022-12-25T04:15:09.992Z,20.17
2022-12-25T04:20:29.806Z,20.13
2022-12-25T04:26:04.539Z,17.93
2022-12-25T04:31:24.499Z,19.30
2022-12-25T04:36:25.853Z,14.98
2022-12-25T04:41:27.156Z,15.87
2022-12-25T04:46:28.452Z,18.30
2022-12-25T04:51:29.779Z,14.10
2022-12-25T04:56:31.063Z,13.85
2022-12-25T05:01:32.498Z,16.40
2022-12-25T05:06:33.854Z,16.67
2022-12-25T05:11:35.127Z,13.80
2022-12-25T05:16:36.499Z,15.50
2022-12-25T05:21:37.810Z,15.57
2022-12-25T05:26:39.064Z,14.60
2022-12-25T05:31:40.784Z,11.37
2022-12-25T05:36:42.080Z,12.80
2022-12-25T05:41:43.401Z,12.73
2022-12-25T05:46:44.731Z,15.65
2022-12-25T05:51:46.170Z,15.05
2022-12-25T05:56:47.461Z,11.40
2022-12-25T06:01:48.890Z,11.07
2022-12-25T06:06:50.322Z,13.77
2022-12-25T06:11:51.647Z,13.45
2022-12-25T06:16:53.453Z,13.40
2022-12-25T06:21:55.615Z,10.80
2022-12-25T06:26:56.931Z,9.40
2022-12-25T06:31:58.931Z,10.00
2022-12-25T06:37:00.330Z,9.18
2022-12-25T06:42:01.710Z,11.15
2022-12-25T06:47:02.982Z,11.97
2022-12-25T06:52:04.322Z,10.70
2022-12-25T06:57:05.595Z,9.83
2022-12-25T07:02:15.886Z,12.48
2022-12-25T07:07:17.237Z,12.05
2022-12-25T07:12:20.134Z,30.23
2022-12-25T07:17:21.789Z,20.98
2022-12-25T07:22:23.028Z,17.67
2022-12-25T07:27:24.551Z,10.18
2022-12-25T07:32:25.839Z,11.88
2022-12-25T07:37:27.093Z,23.43
2022-12-25T07:42:28.334Z,18.75
2022-12-25T07:47:29.589Z,10.77
2022-12-25T07:52:30.893Z,15.73
2022-12-25T07:57:32.621Z,17.15
2022-12-25T08:02:34.287Z,13.07
2022-12-25T08:07:36.029Z,11.35
2022-12-25T08:12:37.355Z,13.03
2022-12-25T08:17:38.642Z,13.52
2022-12-25T08:22:39.905Z,14.57
2022-12-25T08:27:41.193Z,13.47
2022-12-25T08:32:42.496Z,19.35
2022-12-25T08:37:43.738Z,14.23
2022-12-25T08:42:45.008Z,16.15
2022-12-25T08:47:46.236Z,14.57
2022-12-25T08:52:47.507Z,11.37
2022-12-25T08:57:48.780Z,14.20
2022-12-25T09:02:50.423Z,11.73
2022-12-25T09:07:51.741Z,12.18
2022-12-25T09:12:53.023Z,10.57
2022-12-25T09:17:54.340Z,13.00
2022-12-25T09:22:55.631Z,10.70
2022-12-25T09:27:57.072Z,9.63
2022-12-25T09:32:58.392Z,9.52
2022-12-25T09:37:59.745Z,9.18
2022-12-25T09:43:02.648Z,10.10
2022-12-25T09:48:04.057Z,8.90
2022-12-25T09:53:14.525Z,11.27
2022-12-25T09:58:15.909Z,8.25
2022-12-25T10:03:43.658Z,8.35
2022-12-25T10:08:50.821Z,7.70
2022-12-25T10:13:58.833Z,9.18
2022-12-25T10:19:00.112Z,9.50
2022-12-25T10:24:23.459Z,7.72
2022-12-25T10:29:27.818Z,6.97
2022-12-25T10:34:29.102Z,8.23
2022-12-25T10:39:30.450Z,7.13
2022-12-25T10:44:33.131Z,8.10
2022-12-25T10:49:36.550Z,9.10
2022-12-25T10:54:37.807Z,8.18
2022-12-25T10:59:43.431Z,6.80
2022-12-25T11:04:44.768Z,7.95
2022-12-25T11:10:02.744Z,4.60
2022-12-25T11:15:26.354Z,6.90
2022-12-25T11:20:27.679Z,5.13
2022-12-25T11:25:29.072Z,5.10
2022-12-25T11:30:31.612Z,5.88
2022-12-25T11:35:38.117Z,6.40
2022-12-25T11:40:49.898Z,5.90
2022-12-25T11:46:05.037Z,7.15
2022-12-25T11:51:07.003Z,6.20
2022-12-25T11:56:09.494Z,7.13
2022-12-25T12:01:29.422Z,8.30
2022-12-25T12:06:49.557Z,6.60
2022-12-25T12:11:58.372Z,5.00
2022-12-25T12:16:59.915Z,6.32
2022-12-25T12:22:02.412Z,7.57
2022-12-25T12:27:23.907Z,5.50
2022-12-25T12:32:25.118Z,7.32
2022-12-25T12:37:31.417Z,5.67
2022-12-25T12:42:35.746Z,8.05
2022-12-25T12:47:50.045Z,6.32
2022-12-25T12:52:51.349Z,7.00
2022-12-25T12:57:57.292Z,8.75
2022-12-25T13:03:10.749Z,6.43
2022-12-25T13:08:21.096Z,7.37
2022-12-25T13:13:25.841Z,6.38
2022-12-25T13:18:27.412Z,5.93
2022-12-25T13:23:28.736Z,8.90
2022-12-25T13:28:34.021Z,8.60
2022-12-25T13:33:35.425Z,7.33
2022-12-25T13:38:36.686Z,6.77
2022-12-25T13:43:39.195Z,9.23
2022-12-25T13:48:40.879Z,7.20
2022-12-25T13:53:42.706Z,10.95
2022-12-25T13:58:47.163Z,7.22
2022-12-25T14:03:48.589Z,9.43
2022-12-25T14:08:50.933Z,6.95
2022-12-25T14:13:54.026Z,7.70
2022-12-25T14:18:55.357Z,8.17
2022-12-25T14:23:57.340Z,6.93
2022-12-25T14:29:01.709Z,7.53
2022-12-25T14:34:04.364Z,5.97
2022-12-25T14:39:06.587Z,6.90
2022-12-25T14:44:26.787Z,8.13
2022-12-25T14:49:31.092Z,13.25
2022-12-25T14:54:32.385Z,15.35
2022-12-25T14:59:33.636Z,11.43
2022-12-25T15:04:34.911Z,16.73
2022-12-25T15:09:36.281Z,14.50
2022-12-25T15:14:39.972Z,12.07
2022-12-25T15:19:41.201Z,13.68
2022-12-25T15:24:42.490Z,19.87
2022-12-25T15:30:09.002Z,20.63
2022-12-25T15:35:06.182Z,19.15
2022-12-25T15:40:07.966Z,36.37
2022-12-25T15:45:35.323Z,28.65
2022-12-25T15:50:37.623Z,19.88
2022-12-25T15:55:39.386Z,18.93
2022-12-25T16:00:40.660Z,18.65
2022-12-25T16:05:41.948Z,26.37
2022-12-25T16:10:43.187Z,18.77
2022-12-25T16:15:44.959Z,15.95
2022-12-25T16:20:46.703Z,23.30
2022-12-25T16:25:48.224Z,28.95
2022-12-25T16:30:49.555Z,35.33
2022-12-25T16:35:52.411Z,19.20
2022-12-25T16:40:57.768Z,23.90
2022-12-25T16:45:59.142Z,14.97
2022-12-25T16:51:00.514Z,16.30
2022-12-25T16:56:05.732Z,14.03
2022-12-25T17:01:07.888Z,12.73
2022-12-25T17:06:16.221Z,11.20
2022-12-25T17:11:19.387Z,11.23
2022-12-25T17:16:22.814Z,13.23
2022-12-25T17:21:24.581Z,14.03
2022-12-25T17:26:25.862Z,17.48
2022-12-25T17:31:27.768Z,9.75
2022-12-25T17:36:29.584Z,13.00
2022-12-25T17:41:30.918Z,14.93
2022-12-25T17:46:32.405Z,20.60
2022-12-25T17:51:33.777Z,14.98
2022-12-25T17:56:35.056Z,13.77
2022-12-25T18:01:37.855Z,13.80
2022-12-25T18:06:39.217Z,15.15
2022-12-25T18:11:41.630Z,16.50
2022-12-25T18:16:44.633Z,13.80
2022-12-25T18:21:46.009Z,18.80
2022-12-25T18:26:47.323Z,17.97
2022-12-25T18:31:48.677Z,18.67
2022-12-25T18:36:49.946Z,18.17
2022-12-25T18:42:09.694Z,17.92
2022-12-25T18:47:10.966Z,24.65
2022-12-25T18:52:50.372Z,24.77
2022-12-25T18:57:33.496Z,19.17
2022-12-25T19:02:34.979Z,18.23
2022-12-25T19:07:36.508Z,39.65
2022-12-25T19:12:38.020Z,20.65
2022-12-25T19:17:39.408Z,20.57
2022-12-25T19:22:40.657Z,24.63
2022-12-25T19:27:41.893Z,27.07
2022-12-25T19:32:43.137Z,22.45
2022-12-25T19:37:44.383Z,22.42
2022-12-25T19:42:45.726Z,30.13
2022-12-25T19:47:47.106Z,28.10
2022-12-25T19:52:48.383Z,33.80
2022-12-25T19:57:49.660Z,46.97
2022-12-25T20:02:51.059Z,43.83
2022-12-25T20:07:52.443Z,33.43
2022-12-25T20:12:53.824Z,30.35
2022-12-25T20:17:55.245Z,24.90
2022-12-25T20:22:56.529Z,24.52
2022-12-25T20:27:57.804Z,20.83
2022-12-25T20:32:59.116Z,18.03
2022-12-25T20:38:00.378Z,24.15
2022-12-25T20:43:01.614Z,21.20
2022-12-25T20:48:03.632Z,21.52
2022-12-25T20:53:04.897Z,35.15
2022-12-25T20:58:06.213Z,27.20
2022-12-25T21:03:07.809Z,28.38
2022-12-25T21:08:09.268Z,25.67
2022-12-25T21:13:10.655Z,20.05
2022-12-25T21:18:11.984Z,22.05
2022-12-25T21:23:13.566Z,43.87
2022-12-25T21:28:15.571Z,58.42
2022-12-25T21:33:35.559Z,57.10
2022-12-25T21:38:37.448Z,38.78
2022-12-25T21:43:39.359Z,34.10
2022-12-25T21:48:41.057Z,38.20
2022-12-25T21:53:42.325Z,42.85
2022-12-25T21:58:43.609Z,38.60
2022-12-25T22:03:45.017Z,26.45
2022-12-25T22:08:46.358Z,35.63
2022-12-25T22:14:06.254Z,27.73
2022-12-25T22:19:26.024Z,29.25
2022-12-25T22:24:27.292Z,27.20
2022-12-25T22:29:28.570Z,25.35
2022-12-25T22:34:29.964Z,26.83
2022-12-25T22:39:31.551Z,27.47
2022-12-25T22:44:33.467Z,27.63
2022-12-25T22:49:34.827Z,37.53
2022-12-25T22:54:36.494Z,32.85
2022-12-25T22:59:37.748Z,32.05
2022-12-25T23:04:39.016Z,29.27
2022-12-25T23:09:40.376Z,33.95
2022-12-25T23:14:41.918Z,29.13
2022-12-25T23:20:01.908Z,14.93
2022-12-25T23:25:21.811Z,12.32
2022-12-25T23:30:23.044Z,8.70
2022-12-25T23:35:24.342Z,9.20
2022-12-25T23:40:25.638Z,9.40
2022-12-25T23:45:26.944Z,12.25
2022-12-25T23:50:28.157Z,13.68
2022-12-25T23:55:29.399Z,9.70
